Time;durP1;ratioP1;P1;durP2;ratioP2;P2;SDS_P1;SDS_P2;PMS_P1;PMS_P2;Temp;Humidity;BMP_temperature;BMP_pressure;BME280_temperature;BME280_humidity;BME280_pressure;Samples;Min_cycle;Max_cycle;Signal;HPM_P1;HPM_P2
2023/04/06 00:01:10;;;;;;;8.07;4.53;;;4.20;99.90;;;;;;5059046;28;20021;-70
2023/04/06 00:03:36;;;;;;;10.02;4.63;;;4.30;99.90;;;;;;5058037;28;20083;-70
2023/04/06 00:06:01;;;;;;;7.18;3.53;;;4.30;99.90;;;;;;5057653;28;20025;-70
2023/04/06 00:08:27;;;;;;;8.20;4.03;;;4.30;99.90;;;;;;5058043;28;20021;-70
2023/04/06 00:10:53;;;;;;;6.40;3.63;;;4.10;99.90;;;;;;5058892;28;20021;-69
2023/04/06 00:13:18;;;;;;;7.10;3.58;;;4.00;99.90;;;;;;5057576;28;20023;-69
2023/04/06 00:15:44;;;;;;;12.18;3.78;;;4.00;99.90;;;;;;5057561;28;20066;-70
2023/04/06 00:18:10;;;;;;;5.85;3.88;;;3.90;99.90;;;;;;5057818;28;20021;-69
2023/04/06 00:20:35;;;;;;;9.23;4.35;;;3.90;99.90;;;;;;5057543;28;20021;-70
2023/04/06 00:23:01;;;;;;;5.93;3.70;;;3.80;99.90;;;;;;5058443;28;20032;-70
2023/04/06 00:25:27;;;;;;;7.97;3.95;;;3.60;99.90;;;;;;5057630;28;20086;-70
2023/04/06 00:27:52;;;;;;;10.38;4.07;;;3.60;99.90;;;;;;5057765;28;20032;-70
2023/04/06 00:30:18;;;;;;;8.20;3.83;;;3.60;99.90;;;;;;5057600;28;20017;-70
2023/04/06 00:32:44;;;;;;;6.63;3.90;;;3.70;99.90;;;;;;5057184;28;20025;-70
2023/04/06 00:35:10;;;;;;;8.98;3.95;;;3.40;99.90;;;;;;5057213;28;20110;-70
2023/04/06 00:37:35;;;;;;;6.72;4.28;;;3.30;99.90;;;;;;5056968;28;20033;-70
2023/04/06 00:40:02;;;;;;;8.48;4.40;;;3.10;99.90;;;;;;5058267;28;20120;-70
2023/04/06 00:42:27;;;;;;;8.00;4.60;;;2.90;99.90;;;;;;5057427;28;20074;-70
2023/04/06 00:44:57;;;;;;;9.38;4.43;;;2.80;99.90;;;;;;5057027;28;20029;-70
2023/04/06 00:47:25;;;;;;;8.32;3.97;;;2.70;99.90;;;;;;5058240;28;20099;-70
2023/04/06 00:49:51;;;;;;;7.93;4.18;;;2.50;99.90;;;;;;5057310;28;20021;-70
2023/04/06 00:52:17;;;;;;;11.13;4.57;;;2.60;99.90;;;;;;5058007;28;20021;-70
2023/04/06 00:54:43;;;;;;;12.68;4.68;;;2.60;99.90;;;;;;5056864;28;20025;-70
2023/04/06 00:57:10;;;;;;;11.77;4.55;;;2.70;99.90;;;;;;5056724;28;20093;-70
2023/04/06 00:59:37;;;;;;;8.38;4.15;;;2.90;99.90;;;;;;5057140;28;20077;-70
2023/04/06 01:02:03;;;;;;;7.45;4.28;;;3.00;99.90;;;;;;5057874;28;20061;-70
2023/04/06 01:04:29;;;;;;;10.23;4.68;;;3.10;99.90;;;;;;5057561;28;20078;-70
2023/04/06 01:06:54;;;;;;;7.00;5.05;;;3.20;99.90;;;;;;5056513;28;20021;-70
2023/04/06 01:09:21;;;;;;;7.57;3.85;;;3.30;99.90;;;;;;5057474;28;20017;-70
2023/04/06 01:11:46;;;;;;;7.25;4.07;;;3.30;99.90;;;;;;5056187;28;20104;-70
2023/04/06 01:14:12;;;;;;;6.38;3.60;;;3.30;99.90;;;;;;5056607;28;20059;-70
2023/04/06 01:16:38;;;;;;;8.07;4.07;;;3.20;99.90;;;;;;5057285;28;20029;-70
2023/04/06 01:19:11;;;;;;;9.32;4.57;;;3.20;99.90;;;;;;5056442;28;20025;-70
2023/04/06 01:21:40;;;;;;;8.30;3.65;;;3.10;99.90;;;;;;5056553;28;20039;-70
2023/04/06 01:24:07;;;;;;;9.85;4.05;;;3.10;99.90;;;;;;5056386;28;20032;-70
2023/04/06 01:26:35;;;;;;;7.95;4.35;;;3.00;99.90;;;;;;5056269;28;20078;-70
2023/04/06 01:29:01;;;;;;;9.57;4.32;;;2.90;99.90;;;;;;5057115;28;20025;-70
2023/04/06 01:31:27;;;;;;;9.02;4.53;;;2.70;99.90;;;;;;5057066;28;20021;-70
2023/04/06 01:33:53;;;;;;;6.60;3.97;;;2.70;99.90;;;;;;5057124;28;20124;-70
2023/04/06 01:36:19;;;;;;;8.02;3.97;;;2.90;99.90;;;;;;5056321;28;20059;-70
2023/04/06 01:38:45;;;;;;;7.95;3.65;;;3.00;99.90;;;;;;5056123;28;20083;-70
2023/04/06 01:41:11;;;;;;;5.60;3.25;;;3.10;99.90;;;;;;5057088;28;20029;-70
2023/04/06 01:43:36;;;;;;;7.07;3.78;;;3.10;99.90;;;;;;5057185;28;20040;-70
2023/04/06 01:46:02;;;;;;;6.80;3.10;;;3.00;99.90;;;;;;5056046;28;20131;-70
2023/04/06 01:48:28;;;;;;;6.72;3.38;;;3.00;99.90;;;;;;5055927;28;20029;-70
2023/04/06 01:50:54;;;;;;;5.80;3.85;;;2.90;99.90;;;;;;5056298;28;20017;-70
2023/04/06 01:53:20;;;;;;;6.43;3.38;;;2.80;99.90;;;;;;5055982;28;20056;-70
2023/04/06 01:55:46;;;;;;;7.57;4.03;;;2.70;99.90;;;;;;5056808;28;20032;-70
2023/04/06 01:58:12;;;;;;;8.57;3.75;;;2.60;99.90;;;;;;5056238;28;20119;-70
2023/04/06 02:00:37;;;;;;;7.00;3.67;;;2.40;99.90;;;;;;5056731;28;20098;-70
2023/04/06 02:03:03;;;;;;;7.57;3.55;;;2.40;99.90;;;;;;5056588;28;20048;-70
2023/04/06 02:05:30;;;;;;;7.75;4.15;;;2.30;99.90;;;;;;5056726;28;20021;-70
2023/04/06 02:07:56;;;;;;;7.82;3.75;;;2.20;99.90;;;;;;5055663;28;20060;-70
2023/04/06 02:10:22;;;;;;;11.38;3.97;;;2.20;99.90;;;;;;5055839;28;20087;-70
2023/04/06 02:12:48;;;;;;;6.82;3.78;;;2.10;99.90;;;;;;5056593;28;20028;-70
2023/04/06 02:15:14;;;;;;;8.27;3.97;;;2.10;99.90;;;;;;5055800;28;20116;-70
2023/04/06 02:17:41;;;;;;;7.28;4.00;;;2.10;99.90;;;;;;5055834;28;20108;-70
2023/04/06 02:20:07;;;;;;;9.70;3.90;;;2.10;99.90;;;;;;5056223;28;20075;-70
2023/04/06 02:22:32;;;;;;;8.95;4.15;;;2.10;99.90;;;;;;5055681;28;20029;-70
2023/04/06 02:24:58;;;;;;;8.98;3.90;;;2.10;99.90;;;;;;5058693;28;20107;-70
2023/04/06 02:27:23;;;;;;;6.00;3.08;;;2.10;99.90;;;;;;5059809;28;20067;-70
2023/04/06 02:29:49;;;;;;;8.90;4.15;;;2.00;99.90;;;;;;5059557;28;20049;-70
2023/04/06 02:32:15;;;;;;;6.85;4.18;;;1.90;99.90;;;;;;5059559;28;20114;-70
2023/04/06 02:34:40;;;;;;;12.48;4.40;;;1.90;99.90;;;;;;5059905;28;20052;-70
2023/04/06 02:37:06;;;;;;;8.10;3.80;;;1.90;99.90;;;;;;5059907;28;20013;-70
2023/04/06 02:39:31;;;;;;;10.73;4.28;;;1.90;99.90;;;;;;5059316;28;20082;-70
2023/04/06 02:41:57;;;;;;;7.57;3.47;;;1.90;99.90;;;;;;5060267;28;20017;-70
2023/04/06 02:44:23;;;;;;;8.07;3.90;;;2.00;99.90;;;;;;5059247;28;20021;-70
2023/04/06 02:46:48;;;;;;;9.65;4.07;;;2.00;99.90;;;;;;5059866;28;20090;-69
2023/04/06 02:49:14;;;;;;;8.32;3.92;;;2.10;99.90;;;;;;5060226;28;20151;-70
2023/04/06 02:51:40;;;;;;;6.38;3.60;;;2.10;99.90;;;;;;5059838;28;20021;-70
2023/04/06 02:54:05;;;;;;;7.78;3.60;;;2.20;99.90;;;;;;5059202;28;20021;-69
2023/04/06 02:56:31;;;;;;;6.10;3.60;;;2.10;99.90;;;;;;5060033;28;20032;-70
2023/04/06 02:58:56;;;;;;;6.10;3.63;;;2.10;99.90;;;;;;5058989;28;20025;-70
2023/04/06 03:01:23;;;;;;;6.72;3.67;;;2.00;99.90;;;;;;5059096;28;20052;-70
2023/04/06 03:03:48;;;;;;;8.00;4.00;;;2.00;99.90;;;;;;5059603;28;20032;-69
2023/04/06 03:06:14;;;;;;;9.70;3.90;;;2.00;99.90;;;;;;5058873;28;20025;-69
2023/04/06 03:08:40;;;;;;;8.25;4.90;;;2.00;99.90;;;;;;5059205;28;20017;-70
2023/04/06 03:11:05;;;;;;;5.72;3.65;;;2.00;99.90;;;;;;5058915;28;20021;-69
2023/04/06 03:13:31;;;;;;;7.90;3.88;;;2.00;99.90;;;;;;5059008;28;20062;-70
2023/04/06 03:15:56;;;;;;;10.43;3.47;;;1.90;99.90;;;;;;5058829;28;20025;-70
2023/04/06 03:18:23;;;;;;;5.00;3.22;;;1.90;99.90;;;;;;5059601;28;20025;-70
2023/04/06 03:20:50;;;;;;;6.55;3.50;;;1.80;99.90;;;;;;5058684;28;20044;-69
2023/04/06 03:23:15;;;;;;;9.48;3.95;;;1.70;99.90;;;;;;5058715;28;20112;-69
2023/04/06 03:25:41;;;;;;;8.65;3.60;;;1.70;99.90;;;;;;5059739;28;20057;-70
2023/04/06 03:28:06;;;;;;;6.28;3.50;;;1.70;99.90;;;;;;5059341;28;20021;-69
2023/04/06 03:30:32;;;;;;;8.27;3.85;;;1.60;99.90;;;;;;5058484;28;20133;-69
2023/04/06 03:32:58;;;;;;;7.75;4.18;;;1.60;99.90;;;;;;5058325;28;20021;-70
2023/04/06 03:35:24;;;;;;;8.35;3.60;;;1.60;99.90;;;;;;5057899;28;20054;-69
2023/04/06 03:37:50;;;;;;;6.80;4.07;;;1.60;99.90;;;;;;5058367;28;20047;-69
2023/04/06 03:40:15;;;;;;;6.10;3.42;;;1.60;99.90;;;;;;5058818;28;20028;-69
2023/04/06 03:42:41;;;;;;;7.30;3.42;;;1.70;99.90;;;;;;5058284;28;20029;-70
2023/04/06 03:45:07;;;;;;;7.53;3.60;;;1.60;99.90;;;;;;5059046;28;20028;-70
2023/04/06 03:47:33;;;;;;;7.03;3.78;;;1.60;99.90;;;;;;5058838;28;20033;-69
2023/04/06 03:49:58;;;;;;;6.20;3.78;;;1.70;99.90;;;;;;5058114;28;20113;-70
2023/04/06 03:52:24;;;;;;;10.05;3.80;;;1.70;99.90;;;;;;5058875;28;20028;-69
2023/04/06 03:54:49;;;;;;;7.13;3.97;;;1.80;99.90;;;;;;5059690;28;20028;-69
2023/04/06 03:57:15;;;;;;;6.50;3.58;;;1.80;99.90;;;;;;5057972;28;20029;-70
2023/04/06 03:59:41;;;;;;;8.40;3.88;;;1.80;99.90;;;;;;5059297;28;20064;-70
2023/04/06 04:02:06;;;;;;;5.68;3.65;;;1.70;99.90;;;;;;5057903;28;20021;-70
2023/04/06 04:04:32;;;;;;;8.70;4.22;;;1.60;99.90;;;;;;5058113;28;20033;-69
2023/04/06 04:06:57;;;;;;;9.07;4.22;;;1.60;99.90;;;;;;5059106;28;20025;-70
2023/04/06 04:09:23;;;;;;;7.88;4.00;;;1.60;99.90;;;;;;5057566;28;20100;-70
2023/04/06 04:11:49;;;;;;;6.75;3.58;;;1.60;99.90;;;;;;5057714;28;20075;-70
2023/04/06 04:14:14;;;;;;;6.10;3.53;;;1.50;99.90;;;;;;5058586;28;20074;-70
2023/04/06 04:16:41;;;;;;;10.52;3.60;;;1.40;99.90;;;;;;5058634;28;20074;-69
2023/04/06 04:19:07;;;;;;;8.50;4.30;;;1.50;99.90;;;;;;5058376;28;20021;-70
2023/04/06 04:21:32;;;;;;;6.03;3.72;;;1.50;99.90;;;;;;5057515;28;20119;-70
2023/04/06 04:23:58;;;;;;;8.38;3.90;;;1.50;99.90;;;;;;5058385;28;20055;-70
2023/04/06 04:26:24;;;;;;;7.88;3.65;;;1.50;99.90;;;;;;5057635;28;20028;-70
2023/04/06 04:28:50;;;;;;;8.15;3.83;;;1.50;99.90;;;;;;5057294;28;20021;-70
2023/04/06 04:31:17;;;;;;;9.23;4.50;;;1.50;99.90;;;;;;5057196;28;20031;-70
2023/04/06 04:33:43;;;;;;;13.82;4.88;;;1.40;99.90;;;;;;5057598;28;20025;-70
2023/04/06 04:36:09;;;;;;;7.38;3.55;;;1.30;99.90;;;;;;5058368;28;20040;-70
2023/04/06 04:38:35;;;;;;;8.25;3.63;;;1.20;99.90;;;;;;5057993;28;20060;-70
2023/04/06 04:41:01;;;;;;;7.82;3.50;;;1.10;99.90;;;;;;5057283;28;20083;-70
2023/04/06 04:43:27;;;;;;;6.32;4.07;;;1.10;99.90;;;;;;5057054;28;20067;-70
2023/04/06 04:45:52;;;;;;;9.35;4.68;;;1.10;99.90;;;;;;5058399;28;20083;-70
2023/04/06 04:48:18;;;;;;;9.82;4.43;;;1.10;99.90;;;;;;5057037;28;20017;-70
2023/04/06 04:50:44;;;;;;;7.72;3.97;;;1.00;99.90;;;;;;5057267;28;20017;-70
2023/04/06 04:53:09;;;;;;;10.70;4.00;;;1.00;99.90;;;;;;5057923;28;20029;-70
2023/04/06 04:55:35;;;;;;;7.63;3.97;;;1.00;99.90;;;;;;5058047;28;20021;-70
2023/04/06 04:58:02;;;;;;;19.05;4.32;;;1.00;99.90;;;;;;5057644;28;20025;-70
2023/04/06 05:00:27;;;;;;;7.65;3.97;;;0.90;99.90;;;;;;5057716;28;20024;-70
2023/04/06 05:02:53;;;;;;;7.78;3.90;;;0.90;99.90;;;;;;5057816;28;20033;-70
2023/04/06 05:05:18;;;;;;;14.23;4.20;;;0.90;99.90;;;;;;5057232;28;20028;-70
2023/04/06 05:07:44;;;;;;;15.75;4.35;;;1.00;99.90;;;;;;5057313;28;20075;-70
2023/04/06 05:10:10;;;;;;;15.15;3.60;;;1.00;99.90;;;;;;5057567;28;20021;-70
2023/04/06 05:12:36;;;;;;;8.68;3.80;;;1.00;99.90;;;;;;5056490;28;20025;-70
2023/04/06 05:15:02;;;;;;;10.73;3.92;;;1.10;99.90;;;;;;5056641;28;20043;-70
2023/04/06 05:17:28;;;;;;;8.25;4.10;;;1.10;99.90;;;;;;5057264;28;20029;-70
2023/04/06 05:19:54;;;;;;;9.48;4.03;;;1.10;99.90;;;;;;5057208;28;20021;-70
2023/04/06 05:22:19;;;;;;;6.82;4.30;;;1.00;99.90;;;;;;5056851;28;20024;-70
2023/04/06 05:24:45;;;;;;;8.95;3.97;;;0.90;99.90;;;;;;5056997;28;20021;-70
2023/04/06 05:27:11;;;;;;;6.97;4.45;;;0.90;99.90;;;;;;5057237;28;20036;-70
2023/04/06 05:29:36;;;;;;;9.32;4.00;;;0.80;99.90;;;;;;5056572;28;20027;-70
2023/04/06 05:32:02;;;;;;;6.80;3.80;;;0.70;99.90;;;;;;5057386;28;20139;-70
2023/04/06 05:34:28;;;;;;;7.75;4.35;;;0.70;99.90;;;;;;5056286;28;20100;-70
2023/04/06 05:36:53;;;;;;;6.78;4.03;;;0.90;99.90;;;;;;5056073;28;20119;-70
2023/04/06 05:39:19;;;;;;;10.50;3.92;;;0.90;99.90;;;;;;5056438;28;20033;-70
2023/04/06 05:41:45;;;;;;;4.78;3.28;;;1.00;99.90;;;;;;5056048;28;20033;-70
2023/04/06 05:44:10;;;;;;;9.77;3.88;;;1.00;99.90;;;;;;5056895;28;20028;-70
2023/04/06 05:46:36;;;;;;;6.38;3.70;;;0.90;99.90;;;;;;5056517;28;20119;-70
2023/04/06 05:49:04;;;;;;;8.20;4.32;;;1.00;99.90;;;;;;5056856;28;20017;-70
2023/04/06 05:51:30;;;;;;;15.45;4.40;;;1.00;99.90;;;;;;5057153;28;20021;-70
2023/04/06 05:53:55;;;;;;;9.95;4.90;;;1.10;99.90;;;;;;5057168;28;20017;-70
2023/04/06 05:56:21;;;;;;;7.13;3.67;;;1.20;99.90;;;;;;5056409;28;20060;-70
2023/04/06 05:58:46;;;;;;;12.00;4.47;;;1.20;99.90;;;;;;5059339;28;20035;-70
2023/04/06 06:01:12;;;;;;;7.88;4.32;;;1.20;99.90;;;;;;5063425;28;20141;-70
2023/04/06 06:03:38;;;;;;;10.38;4.47;;;1.10;99.90;;;;;;5063496;28;20032;-70
2023/04/06 06:06:04;;;;;;;8.35;4.20;;;1.00;99.90;;;;;;5063620;28;20021;-70
2023/04/06 06:08:30;;;;;;;7.30;4.13;;;1.00;99.90;;;;;;5062526;28;20017;-70
2023/04/06 06:10:56;;;;;;;11.98;4.82;;;1.10;99.90;;;;;;5062442;28;20095;-70
2023/04/06 06:13:25;;;;;;;11.48;4.93;;;1.30;99.90;;;;;;5062621;28;20032;-70
2023/04/06 06:15:50;;;;;;;7.70;4.25;;;1.40;99.90;;;;;;5063539;28;20021;-70
2023/04/06 06:18:16;;;;;;;8.07;4.55;;;1.50;99.90;;;;;;5063190;28;20017;-70
2023/04/06 06:20:42;;;;;;;8.80;4.78;;;1.50;99.90;;;;;;5063155;28;20032;-70
2023/04/06 06:23:07;;;;;;;10.95;4.78;;;1.50;99.90;;;;;;5063460;28;20032;-70
2023/04/06 06:25:33;;;;;;;14.60;5.03;;;1.50;99.90;;;;;;5063219;28;20021;-70
2023/04/06 06:27:59;;;;;;;12.60;4.90;;;1.70;99.90;;;;;;5063232;28;20090;-70
2023/04/06 06:30:25;;;;;;;9.00;4.82;;;1.80;99.90;;;;;;5062311;28;20017;-70
2023/04/06 06:32:51;;;;;;;8.88;5.10;;;1.90;99.90;;;;;;5063443;28;20017;-70
2023/04/06 06:35:17;;;;;;;10.65;4.75;;;1.90;99.90;;;;;;5062401;28;20017;-70
2023/04/06 06:37:43;;;;;;;11.77;5.18;;;2.00;99.90;;;;;;5062222;28;20037;-70
2023/04/06 06:40:10;;;;;;;13.63;5.63;;;2.10;99.90;;;;;;5062737;28;20029;-70
2023/04/06 06:42:36;;;;;;;9.65;5.00;;;2.30;99.90;;;;;;5063285;28;20029;-70
2023/04/06 06:45:02;;;;;;;8.00;5.13;;;2.40;99.90;;;;;;5063154;28;20025;-70
2023/04/06 06:47:28;;;;;;;8.52;4.97;;;2.50;99.90;;;;;;5062272;28;20055;-70
2023/04/06 06:49:55;;;;;;;7.82;4.97;;;2.60;99.90;;;;;;5062201;28;20021;-70
2023/04/06 06:52:21;;;;;;;12.82;5.10;;;2.70;99.90;;;;;;5063160;28;20090;-70
2023/04/06 06:54:47;;;;;;;9.98;5.78;;;2.80;99.90;;;;;;5063242;28;20021;-70
2023/04/06 06:57:12;;;;;;;11.73;5.13;;;2.90;99.90;;;;;;5062903;28;20029;-70
2023/04/06 06:59:38;;;;;;;10.73;5.22;;;3.00;99.90;;;;;;5062977;28;20025;-70
2023/04/06 07:02:03;;;;;;;10.05;5.15;;;3.20;99.90;;;;;;5062953;28;20024;-70
2023/04/06 07:04:29;;;;;;;12.88;5.40;;;3.50;99.90;;;;;;5062340;28;20025;-70
2023/04/06 07:06:55;;;;;;;9.75;4.63;;;3.70;99.90;;;;;;5063047;28;20025;-71
2023/04/06 07:09:20;;;;;;;11.13;4.95;;;3.90;99.90;;;;;;5062902;28;20017;-70
2023/04/06 07:11:46;;;;;;;15.65;5.60;;;4.10;99.90;;;;;;5058123;28;20061;-70
2023/04/06 07:14:11;;;;;;;12.65;5.50;;;4.30;99.90;;;;;;5058920;28;20021;-70
2023/04/06 07:16:37;;;;;;;13.50;5.25;;;4.40;99.90;;;;;;5058685;28;20024;-70
2023/04/06 07:19:03;;;;;;;12.73;5.78;;;4.50;99.90;;;;;;5059026;28;20033;-70
2023/04/06 07:21:28;;;;;;;10.48;5.70;;;4.70;99.90;;;;;;5058607;28;20063;-70
2023/04/06 07:23:54;;;;;;;11.18;4.88;;;4.80;99.90;;;;;;5058687;28;20021;-70
2023/04/06 07:26:20;;;;;;;14.07;5.47;;;4.80;99.90;;;;;;5058491;28;20075;-70
2023/04/06 07:28:45;;;;;;;11.32;5.60;;;4.90;99.90;;;;;;5058741;28;20131;-70
2023/04/06 07:31:11;;;;;;;12.90;5.45;;;5.10;99.90;;;;;;5059347;28;20148;-70
2023/04/06 07:33:36;;;;;;;8.93;4.65;;;5.10;99.90;;;;;;5058575;28;20017;-70
2023/04/06 07:36:02;;;;;;;7.97;4.43;;;5.20;99.90;;;;;;5058338;28;20021;-70
2023/04/06 07:38:28;;;;;;;13.73;4.57;;;5.30;99.90;;;;;;5059111;28;20084;-70
2023/04/06 07:40:54;;;;;;;9.57;5.10;;;5.40;99.90;;;;;;5059174;28;20047;-70
2023/04/06 07:43:19;;;;;;;8.65;5.18;;;5.40;99.90;;;;;;5059126;28;20013;-70
2023/04/06 07:45:45;;;;;;;15.70;5.53;;;5.40;99.90;;;;;;5058364;28;20017;-70
2023/04/06 07:48:11;;;;;;;9.70;4.68;;;5.50;99.90;;;;;;5058833;28;20052;-70
2023/04/06 07:50:36;;;;;;;10.90;5.40;;;5.50;99.90;;;;;;5059654;28;20021;-70
2023/04/06 07:53:02;;;;;;;11.95;5.18;;;5.60;99.90;;;;;;5058408;28;20021;-70
2023/04/06 07:55:28;;;;;;;10.57;5.28;;;5.70;99.90;;;;;;5059308;28;20017;-70
2023/04/06 07:57:53;;;;;;;9.85;5.65;;;5.80;99.90;;;;;;5059097;28;20036;-70
2023/04/06 08:00:20;;;;;;;10.00;5.22;;;5.90;99.90;;;;;;5058064;28;20025;-70
2023/04/06 08:02:45;;;;;;;9.43;5.18;;;6.00;99.90;;;;;;5057913;28;20025;-68
2023/04/06 08:05:11;;;;;;;7.50;4.90;;;6.10;99.90;;;;;;5058192;28;20032;-68
2023/04/06 08:07:36;;;;;;;10.95;5.22;;;6.30;99.90;;;;;;5058598;28;20027;-69
2023/04/06 08:10:03;;;;;;;11.05;5.53;;;6.50;99.90;;;;;;5057916;28;20102;-69
2023/04/06 08:12:28;;;;;;;15.35;6.63;;;6.60;99.90;;;;;;5058649;28;20025;-69
2023/04/06 08:14:54;;;;;;;10.40;5.97;;;6.70;99.90;;;;;;5058735;28;20100;-69
2023/04/06 08:17:20;;;;;;;12.75;6.55;;;6.80;99.90;;;;;;5057716;28;20028;-69
2023/04/06 08:19:45;;;;;;;15.43;6.20;;;7.00;99.90;;;;;;5058428;28;20025;-69
2023/04/06 08:22:11;;;;;;;13.30;5.53;;;7.00;99.90;;;;;;5057115;28;20071;-69
2023/04/06 08:24:37;;;;;;;11.52;5.72;;;7.20;99.90;;;;;;5057801;28;20039;-69
2023/04/06 08:27:03;;;;;;;10.80;6.57;;;7.20;99.90;;;;;;5057417;28;20032;-69
2023/04/06 08:29:29;;;;;;;10.80;5.80;;;7.20;99.90;;;;;;5057438;28;20021;-69
2023/04/06 08:31:54;;;;;;;10.77;6.18;;;7.20;99.90;;;;;;5057510;28;20028;-69
2023/04/06 08:34:21;;;;;;;11.30;6.13;;;7.30;99.90;;;;;;5057581;28;20021;-69
2023/04/06 08:36:50;;;;;;;10.23;6.03;;;7.40;99.90;;;;;;5058263;28;20036;-69
2023/04/06 08:39:15;;;;;;;12.68;5.88;;;7.40;99.90;;;;;;5057799;28;20037;-70
2023/04/06 08:41:44;;;;;;;12.40;6.05;;;7.40;99.90;;;;;;5058158;28;20388;-71
2023/04/06 08:44:11;;;;;;;9.60;5.75;;;7.60;99.90;;;;;;5057180;28;20075;-71
2023/04/06 08:46:37;;;;;;;10.25;6.57;;;7.70;99.90;;;;;;5057870;28;20051;-71
2023/04/06 08:49:06;;;;;;;16.17;6.35;;;7.90;99.90;;;;;;5057256;28;20088;-70
2023/04/06 08:51:32;;;;;;;13.20;6.68;;;8.10;99.90;;;;;;5057965;28;20024;-70
2023/04/06 08:53:59;;;;;;;16.67;6.78;;;8.20;99.90;;;;;;5056982;28;20029;-71
2023/04/06 08:56:26;;;;;;;11.10;6.30;;;8.30;99.90;;;;;;5056878;28;20120;-71
2023/04/06 08:58:53;;;;;;;12.10;6.30;;;8.30;99.90;;;;;;5057722;28;20028;-71
2023/04/06 09:01:22;;;;;;;14.13;6.28;;;8.50;99.90;;;;;;5056925;28;20025;-71
2023/04/06 09:03:49;;;;;;;14.15;7.43;;;8.60;99.90;;;;;;5056744;28;20079;-71
2023/04/06 09:06:15;;;;;;;13.35;7.22;;;8.60;99.90;;;;;;5056574;28;20025;-71
2023/04/06 09:08:41;;;;;;;15.50;6.88;;;8.70;99.90;;;;;;5057474;28;20021;-71
2023/04/06 09:11:07;;;;;;;11.43;6.60;;;8.70;99.90;;;;;;5056726;28;20111;-71
2023/04/06 09:13:45;;;;;;;11.77;7.03;;;8.80;99.90;;;;;;5056726;28;20028;-71
2023/04/06 09:16:11;;;;;;;16.70;7.43;;;8.90;99.90;;;;;;5057162;28;20032;-71
2023/04/06 09:18:37;;;;;;;14.60;7.63;;;9.10;99.90;;;;;;5056946;28;20021;-71
2023/04/06 09:21:05;;;;;;;14.07;7.10;;;9.10;99.90;;;;;;5056534;28;20029;-71
2023/04/06 09:23:31;;;;;;;12.20;7.43;;;9.40;99.90;;;;;;5056750;28;20025;-71
2023/04/06 09:26:16;;;;;;;14.93;7.05;;;9.60;99.90;;;;;;5057354;28;20097;-70
2023/04/06 09:28:46;;;;;;;13.63;7.20;;;9.70;99.90;;;;;;5057186;28;20017;-71
2023/04/06 09:31:17;;;;;;;14.15;6.82;;;9.70;99.90;;;;;;5057206;28;20021;-71
2023/04/06 09:33:44;;;;;;;16.30;7.90;;;9.80;99.90;;;;;;5055945;28;20028;-72
2023/04/06 09:36:11;;;;;;;15.60;7.70;;;9.90;99.90;;;;;;5056246;28;20037;-71
2023/04/06 09:38:38;;;;;;;19.40;7.18;;;9.90;99.90;;;;;;5057589;28;20045;-71
2023/04/06 09:41:03;;;;;;;15.13;7.47;;;9.90;99.90;;;;;;5056186;28;20083;-71
2023/04/06 09:43:30;;;;;;;14.25;6.50;;;10.00;99.90;;;;;;5056571;28;20025;-71
2023/04/06 09:45:56;;;;;;;15.85;7.47;;;10.00;99.90;;;;;;5056953;28;20029;-70
2023/04/06 09:48:24;;;;;;;16.88;8.75;;;10.20;99.90;;;;;;5056939;28;20025;-70
2023/04/06 09:50:52;;;;;;;13.98;7.10;;;10.30;99.90;;;;;;5057203;28;20017;-70
2023/04/06 09:53:20;;;;;;;20.20;7.80;;;10.40;99.90;;;;;;5056118;28;20017;-70
2023/04/06 09:55:48;;;;;;;12.20;7.22;;;10.40;99.90;;;;;;5056976;28;20028;-70
2023/04/06 09:58:25;;;;;;;14.57;7.70;;;10.40;99.90;;;;;;5056114;28;20028;-71
2023/04/06 10:00:58;;;;;;;17.80;7.53;;;10.50;99.90;;;;;;5056055;28;20055;-70
2023/04/06 10:03:47;;;;;;;13.98;7.60;;;10.80;99.90;;;;;;5056164;28;20032;-70
2023/04/06 10:06:14;;;;;;;14.02;6.85;;;11.00;99.90;;;;;;5057456;28;20051;-70
2023/04/06 10:08:42;;;;;;;16.02;6.93;;;11.00;99.90;;;;;;5059403;28;20018;-70
2023/04/06 10:11:10;;;;;;;14.02;7.22;;;11.10;99.90;;;;;;5056865;28;20032;-70
2023/04/06 10:13:36;;;;;;;13.48;7.32;;;11.40;99.90;;;;;;5057361;28;20021;-70
2023/04/06 10:16:02;;;;;;;16.73;7.57;;;11.50;99.90;;;;;;5055759;28;20025;-70
2023/04/06 10:18:28;;;;;;;15.30;7.63;;;11.70;99.90;;;;;;5055979;28;20032;-70
2023/04/06 10:21:11;;;;;;;14.35;7.55;;;11.80;99.90;;;;;;5056145;28;20025;-70
2023/04/06 10:23:43;;;;;;;12.60;6.47;;;11.90;99.90;;;;;;5056704;28;20075;-71
2023/04/06 10:26:14;;;;;;;17.48;6.93;;;12.00;99.90;;;;;;5055704;28;20025;-70
2023/04/06 10:28:42;;;;;;;13.00;7.15;;;12.30;99.90;;;;;;5056619;28;20022;-70
2023/04/06 10:31:07;;;;;;;17.23;8.27;;;12.50;98.80;;;;;;5056666;28;20036;-70
2023/04/06 10:33:34;;;;;;;12.50;7.13;;;12.60;98.30;;;;;;5056066;28;20025;-70
2023/04/06 10:36:09;;;;;;;15.10;7.63;;;12.80;98.00;;;;;;5055728;28;20079;-70
2023/04/06 10:38:39;;;;;;;14.20;7.53;;;12.90;97.30;;;;;;5055560;28;20025;-70
2023/04/06 10:41:06;;;;;;;11.73;6.40;;;13.00;96.40;;;;;;5056037;28;20112;-70
2023/04/06 10:43:37;;;;;;;20.15;7.40;;;13.10;95.30;;;;;;5056435;28;20028;-70
2023/04/06 10:46:04;;;;;;;20.60;7.63;;;13.30;94.90;;;;;;5057315;28;20025;-71
2023/04/06 10:48:41;;;;;;;14.70;7.22;;;13.50;95.10;;;;;;5059354;28;20021;-71
2023/04/06 10:51:12;;;;;;;14.50;7.30;;;13.60;94.10;;;;;;5060232;28;20049;-70
2023/04/06 10:53:42;;;;;;;15.32;7.38;;;13.60;94.00;;;;;;5060336;28;20096;-70
2023/04/06 10:56:11;;;;;;;20.90;7.68;;;13.80;93.40;;;;;;5059276;28;20093;-70
2023/04/06 10:58:37;;;;;;;12.65;6.43;;;13.90;93.50;;;;;;5060116;28;20052;-71
2023/04/06 11:01:03;;;;;;;14.57;7.50;;;14.00;92.80;;;;;;5059556;28;20028;-70
2023/04/06 11:03:29;;;;;;;14.98;7.10;;;14.20;91.80;;;;;;5059167;28;20025;-70
2023/04/06 11:05:55;;;;;;;14.60;7.40;;;14.20;91.40;;;;;;5059778;28;20021;-70
2023/04/06 11:08:29;;;;;;;13.57;7.80;;;14.20;91.40;;;;;;5059310;28;20045;-70
2023/04/06 11:11:09;;;;;;;16.10;8.38;;;14.50;91.60;;;;;;5058876;28;20025;-70
2023/04/06 11:13:58;;;;;;;22.00;9.60;;;14.70;90.90;;;;;;5059844;28;20025;-71
2023/04/06 11:16:30;;;;;;;14.80;7.85;;;14.70;89.10;;;;;;5058995;28;20028;-71
2023/04/06 11:19:04;;;;;;;14.27;7.30;;;14.70;90.60;;;;;;5058898;28;20021;-70
2023/04/06 11:21:36;;;;;;;22.48;9.45;;;14.90;89.80;;;;;;5059725;28;20021;-71
2023/04/06 11:24:06;;;;;;;16.15;8.68;;;15.20;89.00;;;;;;5058783;28;20056;-71
2023/04/06 11:26:36;;;;;;;17.83;8.50;;;15.30;89.30;;;;;;5059347;28;20033;-71
2023/04/06 11:29:02;;;;;;;15.48;8.00;;;15.50;88.10;;;;;;5059537;28;20025;-71
2023/04/06 11:31:27;;;;;;;18.67;8.35;;;15.60;86.60;;;;;;5059418;28;20029;-71
2023/04/06 11:33:57;;;;;;;18.80;8.27;;;15.60;87.20;;;;;;5059014;28;20017;-71
2023/04/06 11:36:23;;;;;;;20.02;8.10;;;15.70;86.70;;;;;;5058619;28;20079;-71
2023/04/06 11:38:49;;;;;;;19.65;8.25;;;15.80;86.50;;;;;;5058320;28;20065;-71
2023/04/06 11:41:15;;;;;;;16.00;7.57;;;15.90;83.90;;;;;;5058467;28;20036;-71
2023/04/06 11:43:47;;;;;;;28.20;7.95;;;15.80;84.50;;;;;;5058699;28;20029;-71
2023/04/06 11:46:19;;;;;;;15.90;7.28;;;15.50;83.40;;;;;;5058294;28;20074;-71
2023/04/06 11:48:46;;;;;;;;;;;15.50;84.90;;;;;;5058825;28;20092;-71
2023/04/06 11:51:12;;;;;;;21.45;7.13;;;15.60;83.20;;;;;;5059022;28;19911;-71
2023/04/06 11:53:47;;;;;;;16.02;7.80;;;15.70;82.90;;;;;;5058962;28;20029;-71
2023/04/06 11:56:23;;;;;;;15.77;8.35;;;15.80;82.00;;;;;;5057910;28;20017;-71
2023/04/06 11:58:49;;;;;;;13.55;6.88;;;15.60;81.80;;;;;;5058030;28;20017;-71
2023/04/06 12:01:15;;;;;;;14.50;6.63;;;15.90;82.20;;;;;;5058932;28;20046;-71
2023/04/06 12:03:40;;;;;;;16.00;6.55;;;16.10;79.90;;;;;;5058542;28;20017;-71
2023/04/06 12:06:06;;;;;;;17.50;8.30;;;15.80;77.90;;;;;;5058320;28;20079;-71
2023/04/06 12:08:32;;;;;;;15.48;6.85;;;15.70;78.70;;;;;;5057918;28;20067;-71
2023/04/06 12:10:59;;;;;;;13.32;7.15;;;15.80;78.70;;;;;;5058661;28;20025;-71
2023/04/06 12:13:24;;;;;;;13.95;7.28;;;16.10;81.10;;;;;;5058245;28;20025;-71
2023/04/06 12:15:50;;;;;;;15.63;7.95;;;16.40;79.50;;;;;;5063407;28;20021;-72
2023/04/06 12:18:15;;;;;;;15.25;7.47;;;16.60;80.10;;;;;;5059467;28;20025;-71
2023/04/06 12:20:41;;;;;;;10.80;5.75;;;16.60;77.80;;;;;;5058148;28;20099;-71
2023/04/06 12:23:07;;;;;;;12.27;5.90;;;16.80;75.40;;;;;;5057653;28;20059;-71
2023/04/06 12:25:32;;;;;;;9.52;5.90;;;16.80;74.60;;;;;;5058868;28;20025;-71
2023/04/06 12:27:58;;;;;;;9.23;5.60;;;16.60;73.10;;;;;;5057372;28;20053;-71
2023/04/06 12:30:23;;;;;;;9.95;5.45;;;16.40;72.90;;;;;;5057597;28;20031;-71
2023/04/06 12:32:50;;;;;;;11.88;5.32;;;16.30;73.00;;;;;;5057651;28;20025;-71
2023/04/06 12:35:16;;;;;;;11.98;5.40;;;16.10;72.50;;;;;;5058106;28;20063;-71
2023/04/06 12:37:42;;;;;;;13.85;5.75;;;15.90;72.00;;;;;;5057487;28;20106;-71
2023/04/06 12:40:10;;;;;;;12.10;5.40;;;15.80;73.70;;;;;;5057229;28;20100;-71
2023/04/06 12:42:36;;;;;;;10.95;6.15;;;15.50;76.10;;;;;;5057428;28;20033;-71
2023/04/06 12:45:02;;;;;;;11.82;5.93;;;15.50;74.20;;;;;;5057654;28;20099;-71
2023/04/06 12:47:29;;;;;;;10.73;5.00;;;15.40;74.10;;;;;;5057231;28;20025;-71